Time;durP1;ratioP1;P1;durP2;ratioP2;P2;SDS_P1;SDS_P2;PMS_P1;PMS_P2;Temp;Humidity;BMP_temperature;BMP_pressure;BME280_temperature;BME280_humidity;BME280_pressure;Samples;Min_cycle;Max_cycle;Signal;HPM_P1;HPM_P2
2023/07/07 00:00:54;;;;;;;;;10.00;10.00;;;;;18.81;100.00;99126.63;6021096;29;96305;-65
2023/07/07 00:03:59;;;;;;;;;12.00;11.00;;;;;18.79;100.00;99132.34;6004330;29;98390;-65
2023/07/07 00:07:02;;;;;;;;;12.25;11.25;;;;;18.76;100.00;99138.38;6020683;29;96346;-65
2023/07/07 00:10:07;;;;;;;;;12.00;11.00;;;;;18.60;100.00;99118.38;6021098;29;96452;-66
2023/07/07 00:13:10;;;;;;;;;13.20;12.20;;;;;18.65;100.00;99139.44;6020216;29;96908;-65
2023/07/07 00:16:15;;;;;;;;;12.20;11.00;;;;;18.65;100.00;99139.44;6003126;29;96692;-65
2023/07/07 00:19:19;;;;;;;;;13.00;11.67;;;;;18.63;100.00;99138.84;6020745;29;96548;-66
2023/07/07 00:22:22;;;;;;;;;11.00;11.00;;;;;18.66;100.00;99138.34;6003553;29;96351;-65
2023/07/07 00:25:25;;;;;;;;;12.00;11.00;;;;;18.64;100.00;99135.03;6002215;29;99568;-66
2023/07/07 00:28:29;;;;;;;;;12.00;9.60;;;;;18.64;100.00;99136.94;6003395;29;96774;-65
2023/07/07 00:31:33;;;;;;;;;12.00;10.50;;;;;18.62;100.00;99139.16;6019451;29;96365;-65
2023/07/07 00:34:36;;;;;;;;;12.40;11.40;;;;;18.35;100.00;99106.50;6003672;29;96696;-65
2023/07/07 00:37:40;;;;;;;;;13.00;12.50;;;;;18.54;100.00;99138.56;6019085;29;96471;-66
2023/07/07 00:40:43;;;;;;;;;13.00;11.00;;;;;18.59;100.00;99146.78;6003746;29;98464;-65
2023/07/07 00:44:05;;;;;;;;;13.00;12.20;;;;;18.65;100.00;99152.25;6018964;29;96297;-65
2023/07/07 00:47:10;;;;;;;;;13.40;11.40;;;;;18.68;100.00;99152.53;6018346;29;97625;-65
2023/07/07 00:50:16;;;;;;;;;10.00;10.00;;;;;18.70;100.00;99158.56;6016638;29;98442;-65
2023/07/07 00:53:21;;;;;;;;;13.40;12.00;;;;;18.74;100.00;99159.66;6001049;29;97744;-65
2023/07/07 00:56:35;;;;;;;;;15.00;14.00;;;;;18.77;100.00;99167.31;6016911;29;96855;-65
2023/07/07 00:59:42;;;;;;;;;15.00;14.00;;;;;18.79;100.00;99156.13;6017315;29;96904;-65
2023/07/07 01:02:54;;;;;;;;;14.75;13.50;;;;;18.90;100.00;99171.47;6001398;29;97860;-64
2023/07/07 01:06:01;;;;;;;;;14.80;13.00;;;;;18.89;100.00;99167.91;6008681;29;97907;-64
2023/07/07 01:09:08;;;;;;;;;12.40;12.40;;;;;18.85;100.00;99165.97;6024908;28;96341;-66
2023/07/07 01:12:14;;;;;;;;;16.75;14.75;;;;;18.87;100.00;99172.81;6032515;28;96284;-66
2023/07/07 01:15:18;;;;;;;;;13.00;13.00;;;;;18.89;100.00;99165.16;6018870;29;96482;-66
2023/07/07 01:18:36;;;;;;;;;14.00;13.00;;;;;18.89;100.00;99161.63;6002113;29;98343;-65
2023/07/07 01:21:53;;;;;;;;;11.67;11.00;;;;;18.86;100.00;99167.63;6018580;29;96355;-65
2023/07/07 01:25:07;;;;;;;;;16.40;14.00;;;;;18.93;100.00;99173.66;6020025;29;96505;-65
2023/07/07 01:28:31;;;;;;;;;13.60;12.60;;;;;18.99;100.00;99178.03;6020249;29;96508;-66
2023/07/07 01:31:42;;;;;;;;;12.50;11.50;;;;;18.95;100.00;99171.47;6006820;29;97042;-65
2023/07/07 01:34:47;;;;;;;;;13.50;12.00;;;;;19.01;100.00;99181.31;6019975;29;96812;-65
2023/07/07 01:37:54;;;;;;;;;10.50;10.50;;;;;18.98;100.00;99174.47;6018109;29;96423;-65
2023/07/07 01:41:06;;;;;;;;;17.50;16.25;;;;;18.92;100.00;99175.56;6018533;29;96422;-65
2023/07/07 01:44:17;;;;;;;;;12.00;12.00;;;;;18.91;100.00;99171.16;6002368;29;96704;-66
2023/07/07 01:47:28;;;;;;;;;14.00;13.00;;;;;18.88;100.00;99181.81;6018331;29;96431;-67
2023/07/07 01:50:33;;;;;;;;;12.00;11.00;;;;;18.85;100.00;99190.56;6019181;29;96529;-65
2023/07/07 01:53:40;;;;;;;;;12.00;11.20;;;;;18.83;100.00;99190.00;6017544;29;96867;-65
2023/07/07 01:56:47;;;;;;;;;12.60;11.60;;;;;18.80;100.00;99180.44;6019383;29;96419;-65
2023/07/07 01:59:51;;;;;;;;;11.20;11.00;;;;;18.80;100.00;99177.72;6018367;29;96625;-65
2023/07/07 02:02:58;;;;;;;;;13.00;12.00;;;;;18.81;100.00;99192.19;5987095;29;96866;-65
2023/07/07 02:06:02;;;;;;;;;14.00;12.00;;;;;18.79;100.00;99197.09;6018218;29;97682;-65
2023/07/07 02:09:05;;;;;;;;;14.40;13.40;;;;;18.63;100.00;99165.34;6002008;29;99640;-65
2023/07/07 02:12:09;;;;;;;;;12.60;10.40;;;;;18.74;100.00;99191.63;6013982;29;98475;-65
2023/07/07 02:15:12;;;;;;;;;12.00;11.00;;;;;18.70;100.00;99193.25;6018896;29;96943;-65
2023/07/07 02:18:18;;;;;;;;;10.00;9.20;;;;;18.68;100.00;99193.50;6017676;29;96968;-65
2023/07/07 02:21:21;;;;;;;;;10.00;10.00;;;;;18.65;100.00;99194.03;6004876;29;96389;-65
2023/07/07 02:24:25;;;;;;;;;12.00;12.00;;;;;18.64;100.00;99200.59;6018116;29;96292;-65
2023/07/07 02:27:28;;;;;;;;;9.40;8.00;;;;;18.64;100.00;99208.78;6014685;29;96485;-66
2023/07/07 02:30:31;;;;;;;;;11.60;10.00;;;;;18.62;100.00;99205.47;6001378;29;96658;-65
2023/07/07 02:33:36;;;;;;;;;9.00;8.00;;;;;18.59;100.00;99211.47;6017372;29;96351;-66
2023/07/07 02:36:40;;;;;;;;;13.00;11.00;;;;;18.57;100.00;99208.19;6014848;28;98810;-65
2023/07/07 02:39:44;;;;;;;;;11.20;11.20;;;;;18.44;100.00;99186.81;6000396;29;99435;-66
2023/07/07 02:42:47;;;;;;;;;12.00;10.40;;;;;18.52;100.00;99213.63;6019336;28;96488;-66
2023/07/07 02:45:51;;;;;;;;;12.75;11.00;;;;;18.33;100.00;99183.19;6006242;29;96710;-66
2023/07/07 02:48:55;;;;;;;;;10.25;9.00;;;;;18.47;100.00;99205.41;6022386;29;96145;-66
2023/07/07 02:51:59;;;;;;;;;10.00;10.00;;;;;18.46;100.00;99220.97;6005320;29;98484;-66
2023/07/07 02:55:02;;;;;;;;;11.60;10.20;;;;;18.45;100.00;99222.03;6017926;28;97200;-65
2023/07/07 02:58:05;;;;;;;;;9.00;9.00;;;;;18.35;100.00;99200.13;5997722;29;99422;-65
2023/07/07 03:01:10;;;;;;;;;12.25;11.00;;;;;18.48;100.00;99216.03;6002802;29;98963;-65
2023/07/07 03:04:16;;;;;;;;;11.00;11.00;;;;;18.58;100.00;99218.84;6017714;28;96973;-65
2023/07/07 03:07:19;;;;;;;;;10.00;10.00;;;;;18.66;100.00;99220.28;6016846;28;96425;-65
2023/07/07 03:10:23;;;;;;;;;13.33;12.67;;;;;18.77;100.00;99230.13;6003785;29;96905;-65
2023/07/07 03:13:26;;;;;;;;;11.40;10.40;;;;;18.83;100.00;99217.31;6003682;29;97038;-66
2023/07/07 03:16:31;;;;;;;;;10.80;9.80;;;;;18.90;100.00;99218.72;6021706;29;96321;-65
2023/07/07 03:19:43;;;;;;;;;14.00;13.00;;;;;19.01;100.00;99227.75;6006202;29;96836;-66
2023/07/07 03:22:50;;;;;;;;;14.60;13.00;;;;;19.06;100.00;99227.78;6004609;28;97078;-66
2023/07/07 03:25:56;;;;;;;;;14.00;12.00;;;;;19.10;100.00;99236.28;6020660;29;97601;-66
2023/07/07 03:29:00;;;;;;;;;14.50;14.00;;;;;19.11;100.00;99238.72;6003633;29;96399;-66
2023/07/07 03:32:04;;;;;;;;;12.60;12.60;;;;;19.17;100.00;99240.41;5999369;29;98764;-66
2023/07/07 03:35:11;;;;;;;;;14.00;13.00;;;;;19.25;100.00;99237.16;6003075;29;98474;-65
2023/07/07 03:38:14;;;;;;;;;12.60;10.00;;;;;19.31;100.00;99246.16;6002614;29;96486;-65
2023/07/07 03:41:19;;;;;;;;;13.40;10.00;;;;;19.37;100.00;99243.19;6002454;29;96558;-65
2023/07/07 03:44:23;;;;;;;;;14.40;13.40;;;;;19.45;100.00;99244.59;6018559;29;97022;-65
2023/07/07 03:47:27;;;;;;;;;13.00;12.00;;;;;19.53;100.00;99238.59;6013965;28;97012;-65
2023/07/07 03:50:33;;;;;;;;;12.00;12.00;;;;;19.59;100.00;99240.25;6001734;29;96970;-65
2023/07/07 03:53:37;;;;;;;;;13.00;12.60;;;;;19.65;100.00;99249.25;5996025;29;96931;-65
2023/07/07 03:56:42;;;;;;;;;14.00;12.67;;;;;19.75;100.00;99252.00;6019122;28;97222;-65
2023/07/07 03:59:45;;;;;;;;;14.80;13.00;;;;;19.81;100.00;99253.66;6017771;29;96351;-65
2023/07/07 04:02:48;;;;;;;;;11.20;11.00;;;;;19.87;100.00;99258.88;6017205;28;98049;-66
2023/07/07 04:06:00;;;;;;;;;12.00;10.00;;;;;19.95;100.00;99260.22;6020475;29;96363;-66
2023/07/07 04:09:04;;;;;;;;;12.40;12.20;;;;;19.87;100.00;99247.09;6027941;28;96442;-66
2023/07/07 04:12:10;;;;;;;;;10.00;9.00;;;;;20.13;100.00;99256.97;6003294;28;98495;-66
2023/07/07 04:15:14;;;;;;;;;11.00;10.00;;;;;20.22;100.00;99259.97;6016890;28;96329;-65
2023/07/07 04:18:17;;;;;;;;;9.25;8.25;;;;;20.29;100.00;99255.00;6002869;28;99046;-65
2023/07/07 04:21:24;;;;;;;;;11.67;9.67;;;;;20.39;100.00;99257.75;6003353;29;96583;-66
2023/07/07 04:24:27;;;;;;;;;9.40;8.00;;;;;20.47;100.00;99257.22;6001621;28;98427;-66
2023/07/07 04:27:32;;;;;;;;;10.00;8.40;;;;;20.55;100.00;99262.13;6014253;29;97371;-66
2023/07/07 04:30:36;;;;;;;;;10.60;10.00;;;;;20.59;100.00;99265.13;6019726;29;96325;-65
2023/07/07 04:33:40;;;;;;;;;9.00;8.40;;;;;20.69;100.00;99267.84;6019442;29;96973;-66
2023/07/07 04:36:46;;;;;;;;;11.00;10.00;;;;;20.80;100.00;99274.09;6018749;29;97763;-65
2023/07/07 04:39:49;;;;;;;;;15.00;12.00;;;;;20.89;100.00;99269.69;6016196;28;97435;-66
2023/07/07 04:42:52;;;;;;;;;12.00;11.00;;;;;20.98;100.00;99271.56;6026506;28;96503;-65
2023/07/07 04:45:55;;;;;;;;;10.00;9.25;;;;;21.06;100.00;99273.72;6019372;29;97599;-65
2023/07/07 04:48:59;;;;;;;;;10.80;9.80;;;;;21.04;100.00;99269.63;6018976;29;96577;-65
2023/07/07 04:52:05;;;;;;;;;13.80;12.40;;;;;21.18;100.00;99277.00;6010264;29;97009;-65
2023/07/07 04:55:09;;;;;;;;;13.00;11.50;;;;;21.26;100.00;99278.31;5997728;29;97160;-65
2023/07/07 04:58:12;;;;;;;;;11.20;11.00;;;;;21.24;100.00;99287.94;6008764;29;98558;-65
2023/07/07 05:01:18;;;;;;;;;10.80;10.00;;;;;21.34;100.00;99279.66;6017810;28;96519;-65
2023/07/07 05:04:22;;;;;;;;;11.60;11.00;;;;;21.40;100.00;99276.63;6016828;29;97178;-64
2023/07/07 05:07:29;;;;;;;;;9.20;9.20;;;;;21.47;100.00;99285.34;6014453;29;97302;-65
2023/07/07 05:10:32;;;;;;;;;11.40;11.40;;;;;21.58;100.00;99288.84;5995634;29;97132;-65
2023/07/07 05:13:35;;;;;;;;;12.60;12.00;;;;;21.67;100.00;99289.91;6016746;28;96598;-65
2023/07/07 05:16:39;;;;;;;;;12.00;11.00;;;;;21.76;100.00;99290.09;6019995;28;97490;-65
2023/07/07 05:19:42;;;;;;;;;14.60;12.60;;;;;21.84;100.00;99295.00;6016101;29;97317;-65
2023/07/07 05:22:47;;;;;;;;;13.00;13.00;;;;;21.84;100.00;99292.25;6001735;29;97634;-65
2023/07/07 05:25:50;;;;;;;;;11.75;11.00;;;;;21.96;100.00;99293.56;6015130;29;96702;-66
2023/07/07 05:28:54;;;;;;;;;13.75;13.50;;;;;22.00;100.00;99296.53;6000788;28;96773;-67
2023/07/07 05:31:59;;;;;;;;;14.20;12.20;;;;;22.06;100.00;99294.59;6009381;28;96555;-65
2023/07/07 05:35:02;;;;;;;;;12.20;12.00;;;;;22.06;100.00;99289.91;5996877;29;96890;-64
2023/07/07 05:38:07;;;;;;;;;16.00;14.00;;;;;22.10;100.00;99306.63;6001333;28;96920;-65
2023/07/07 05:41:10;;;;;;;;;12.00;11.40;;;;;22.12;100.00;99291.53;6017275;29;96682;-65
2023/07/07 05:44:14;;;;;;;;;13.00;12.00;;;;;22.23;100.00;99303.25;6018656;29;96882;-65
2023/07/07 05:47:17;;;;;;;;;12.40;11.00;;;;;22.30;100.00;99301.78;6017486;29;96679;-65
2023/07/07 05:50:20;;;;;;;;;13.00;12.60;;;;;22.32;100.00;99307.84;6000962;29;96758;-65
2023/07/07 05:53:25;;;;;;;;;12.00;12.00;;;;;22.34;100.00;99302.84;6016695;28;96435;-65
2023/07/07 05:56:30;;;;;;;;;14.00;12.00;;;;;22.43;100.00;99314.06;6016772;29;96905;-65
2023/07/07 05:59:34;;;;;;;;;13.40;12.40;;;;;22.44;100.00;99304.69;6017083;29;97353;-65
2023/07/07 06:02:37;;;;;;;;;13.00;12.00;;;;;22.65;100.00;99302.56;6017375;29;98491;-66
2023/07/07 06:05:40;;;;;;;;;16.00;13.20;;;;;22.76;100.00;99304.13;6017233;29;98677;-65
2023/07/07 06:08:46;;;;;;;;;18.00;15.00;;;;;22.89;100.00;99311.69;6018600;29;96947;-65
2023/07/07 06:11:49;;;;;;;;;15.60;14.60;;;;;23.05;100.00;99320.59;6007921;29;96804;-65
2023/07/07 06:14:52;;;;;;;;;16.00;15.00;;;;;23.27;100.00;99313.41;5991262;29;96708;-65
2023/07/07 06:17:56;;;;;;;;;14.60;14.60;;;;;23.20;100.00;99301.97;5988510;29;96498;-65
2023/07/07 06:21:01;;;;;;;;;16.00;14.60;;;;;23.35;100.00;99305.63;6013285;29;96741;-67
2023/07/07 06:24:07;;;;;;;;;17.40;16.40;;;;;23.61;100.00;99321.53;6003695;29;96851;-65
2023/07/07 06:27:10;;;;;;;;;13.20;12.20;;;;;23.81;100.00;99323.16;6001605;29;96482;-65
2023/07/07 06:30:14;;;;;;;;;14.00;12.60;;;;;24.10;100.00;99326.56;6021737;29;96363;-65
2023/07/07 06:33:18;;;;;;;;;15.00;15.00;;;;;24.29;100.00;99323.03;6020500;29;96517;-65
2023/07/07 06:36:23;;;;;;;;;15.00;14.00;;;;;24.38;100.00;99333.06;6022797;29;96410;-66
2023/07/07 06:39:28;;;;;;;;;16.00;15.20;;;;;24.43;100.00;99330.22;6020317;29;96542;-65
2023/07/07 06:42:31;;;;;;;;;15.67;15.00;;;;;24.47;100.00;99320.22;6028362;28;96715;-65
2023/07/07 06:45:43;;;;;;;;;13.00;13.00;;;;;24.79;100.00;99337.84;6037000;28;98847;-65
2023/07/07 06:48:47;;;;;;;;;15.00;14.00;;;;;24.89;100.00;99335.75;6005933;29;96689;-67
2023/07/07 06:51:50;;;;;;;;;14.75;14.00;;;;;25.20;100.00;99343.44;6020342;29;96711;-65
2023/07/07 06:54:56;;;;;;;;;14.60;13.60;;;;;25.28;100.00;99349.03;6020016;29;96598;-65
2023/07/07 06:57:59;;;;;;;;;17.00;15.00;;;;;25.33;100.00;99337.06;6020163;29;96307;-65
2023/07/07 07:01:03;;;;;;;;;13.00;13.00;;;;;25.19;100.00;99314.19;6020329;29;96537;-65
2023/07/07 07:04:06;;;;;;;;;11.00;10.60;;;;;25.28;100.00;99348.22;6022481;29;96291;-65
2023/07/07 07:07:12;;;;;;;;;10.60;10.00;;;;;25.36;100.00;99351.06;6022127;29;96616;-65
2023/07/07 07:10:17;;;;;;;;;12.40;12.00;;;;;25.38;100.00;99345.25;6021071;29;96684;-65
2023/07/07 07:13:21;;;;;;;;;12.20;9.80;;;;;25.69;100.00;99345.47;6021459;29;96374;-65
2023/07/07 07:16:24;;;;;;;;;12.00;12.00;;;;;25.92;100.00;99349.09;6002553;29;96433;-65
2023/07/07 07:19:27;;;;;;;;;9.60;9.60;;;;;26.23;100.00;99348.09;6021650;29;96977;-65
2023/07/07 07:22:30;;;;;;;;;13.00;11.00;;;;;26.38;100.00;99355.19;6017640;28;97139;-65
2023/07/07 07:25:35;;;;;;;;;9.00;7.50;;;;;26.64;100.00;99358.13;6018780;28;96797;-66
2023/07/07 07:28:38;;;;;;;;;14.00;11.00;;;;;26.87;100.00;99347.88;6021898;29;96362;-65
2023/07/07 07:31:41;;;;;;;;;14.60;13.00;;;;;27.14;100.00;99361.50;6022139;29;97058;-66
2023/07/07 07:34:45;;;;;;;;;11.40;10.60;;;;;27.32;98.66;99357.66;6021972;28;96548;-66
2023/07/07 07:37:48;;;;;;;;;9.00;8.00;;;;;27.56;95.31;99362.84;6020680;29;97245;-66
2023/07/07 07:40:54;;;;;;;;;9.75;8.25;;;;;27.68;98.53;99362.19;6019892;29;98487;-65
2023/07/07 07:43:57;;;;;;;;;8.20;7.60;;;;;27.83;89.56;99370.88;6018114;29;96782;-65
2023/07/07 07:47:00;;;;;;;;;12.00;11.00;;;;;28.07;92.53;99362.09;6009298;29;96423;-66
2023/07/07 07:50:04;;;;;;;;;9.50;8.00;;;;;28.42;92.21;99365.69;6020018;29;97225;-65
2023/07/07 07:53:08;;;;;;;;;9.75;8.25;;;;;28.79;82.87;99364.19;6022428;28;98842;-66
2023/07/07 07:56:12;;;;;;;;;7.00;7.00;;;;;29.00;77.89;99367.88;6013898;28;96341;-66
2023/07/07 07:59:15;;;;;;;;;7.00;7.00;;;;;29.17;72.53;99364.25;6021795;29;96633;-65
2023/07/07 08:02:19;;;;;;;;;8.60;6.60;;;;;29.33;76.24;99368.09;6021450;29;96350;-66
2023/07/07 08:05:22;;;;;;;;;8.00;7.60;;;;;29.43;67.79;99366.91;6021403;29;96860;-66
2023/07/07 08:08:26;;;;;;;;;7.00;5.50;;;;;29.42;66.51;99366.09;6019230;29;96728;-66
2023/07/07 08:11:59;;;;;;;;;8.00;7.00;;;;;29.38;68.83;99359.59;6021713;28;96486;-66
2023/07/07 08:15:04;;;;;;;;;6.60;6.00;;;;;29.35;62.59;99371.38;6007871;29;96308;-65
2023/07/07 08:18:07;;;;;;;;;7.50;7.50;;;;;29.49;69.29;99371.97;6019345;29;97004;-66
2023/07/07 08:21:10;;;;;;;;;8.00;7.00;;;;;29.92;66.86;99371.72;6019336;29;97197;-66
2023/07/07 08:24:13;;;;;;;;;7.00;7.00;;;;;30.36;61.55;99367.44;6002917;29;99072;-66
2023/07/07 08:27:19;;;;;;;;;8.00;8.00;;;;;30.36;56.93;99361.88;6019398;28;96911;-66
2023/07/07 08:30:25;;;;;;;;;6.00;5.60;;;;;30.52;62.87;99370.44;6007911;29;97084;-66
2023/07/07 08:33:29;;;;;;;;;7.00;7.00;;;;;30.89;61.33;99366.59;6019536;29;96806;-66
2023/07/07 08:36:32;;;;;;;;;6.00;6.00;;;;;31.17;60.52;99368.78;6007058;29;96707;-66
2023/07/07 08:39:35;;;;;;;;;7.00;7.00;;;;;31.50;55.95;99377.88;6018821;29;96813;-66
2023/07/07 08:42:41;;;;;;;;;6.20;5.00;;;;;31.77;53.06;99379.13;6031990;28;96431;-66
2023/07/07 08:45:52;;;;;;;;;6.00;6.00;;;;;32.05;46.22;99373.66;6021201;28;96547;-66
2023/07/07 08:49:02;;;;;;;;;8.00;7.00;;;;;32.29;48.84;99376.41;6019062;28;96424;-66
2023/07/07 08:52:18;;;;;;;;;7.00;6.00;;;;;32.52;49.94;99374.69;6019128;29;96759;-65
2023/07/07 08:55:36;;;;;;;;;7.00;7.00;;;;;32.60;47.35;99376.50;6020669;29;96946;-66
2023/07/07 08:58:49;;;;;;;;;5.00;4.40;;;;;32.32;39.62;99358.13;6020573;29;96728;-66
2023/07/07 09:02:00;;;;;;;;;6.50;6.50;;;;;32.04;39.66;99375.63;6020268;28;96335;-66
2023/07/07 09:05:17;;;;;;;;;5.00;5.00;;;;;31.80;39.85;99376.47;6011010;29;96545;-66
2023/07/07 09:08:29;;;;;;;;;6.40;6.00;;;;;31.92;44.51;99377.59;6008030;29;96419;-66
2023/07/07 09:12:06;;;;;;;;;5.00;4.25;;;;;32.16;47.13;99374.78;6003336;29;96603;-66
2023/07/07 09:15:16;;;;;;;;;6.00;6.00;;;;;32.03;45.94;99348.06;6003423;28;96643;-61
2023/07/07 09:18:24;;;;;;;;;4.00;4.00;;;;;32.25;43.98;99378.28;6033235;28;96323;-61
2023/07/07 09:21:35;;;;;;;;;6.00;5.00;;;;;32.52;47.16;99376.66;6018972;28;96324;-61
2023/07/07 09:24:45;;;;;;;;;4.00;4.00;;;;;32.79;45.71;99372.25;6009006;29;97592;-61
2023/07/07 09:27:53;;;;;;;;;4.00;4.00;;;;;33.21;45.95;99372.59;6020646;29;96378;-61
2023/07/07 09:31:08;;;;;;;;;6.00;4.25;;;;;33.65;44.92;99374.09;6003080;29;97156;-61
2023/07/07 09:34:14;;;;;;;;;4.20;3.80;;;;;33.76;44.50;99386.38;6020846;28;97082;-61
2023/07/07 09:37:32;;;;;;;;;4.00;4.00;;;;;34.08;42.70;99373.13;6027880;28;96668;-61
2023/07/07 09:40:43;;;;;;;;;5.00;4.50;;;;;34.34;43.89;99373.31;6006889;29;96438;-61
2023/07/07 09:43:57;;;;;;;;;3.40;3.40;;;;;34.45;40.62;99372.75;6028239;28;96710;-61
2023/07/07 09:47:13;;;;;;;;;3.80;3.80;;;;;34.67;40.01;99367.22;6023084;28;96884;-61
2023/07/07 09:50:22;;;;;;;;;4.00;4.00;;;;;34.95;41.49;99374.53;6018414;29;98628;-61
2023/07/07 09:53:30;;;;;;;;;5.00;4.40;;;;;34.67;39.57;99371.97;6018186;29;96858;-61
2023/07/07 09:56:55;;;;;;;;;4.60;4.20;;;;;34.35;39.91;99372.16;6018125;29;97034;-61
2023/07/07 10:00:02;;;;;;;;;4.00;3.00;;;;;34.05;38.60;99373.84;6019895;29;96965;-61
2023/07/07 10:03:19;;;;;;;;;4.80;3.00;;;;;33.73;38.21;99378.72;6007664;29;96253;-61
2023/07/07 10:06:28;;;;;;;;;4.80;4.20;;;;;33.87;42.13;99373.44;6006477;29;97398;-61
2023/07/07 10:09:32;;;;;;;;;4.00;4.00;;;;;34.14;41.39;99374.47;6018455;29;96373;-61
2023/07/07 10:12:35;;;;;;;;;4.00;3.00;;;;;34.18;40.32;99321.38;6018290;29;96775;-61
2023/07/07 10:15:51;;;;;;;;;4.75;4.75;;;;;34.58;38.21;99368.59;6003707;29;96786;-61
2023/07/07 10:18:57;;;;;;;;;5.60;5.60;;;;;34.67;38.78;99357.97;5999477;29;98129;-61
2023/07/07 10:22:01;;;;;;;;;4.00;4.00;;;;;34.65;40.11;99366.72;6005567;29;96321;-61
2023/07/07 10:25:05;;;;;;;;;4.00;3.20;;;;;34.79;34.21;99374.66;6007365;29;96354;-61
2023/07/07 10:28:12;;;;;;;;;4.00;4.00;;;;;34.81;32.04;99372.28;6017670;29;98999;-61
2023/07/07 10:31:17;;;;;;;;;5.00;4.00;;;;;34.87;35.73;99367.19;6019800;29;96854;-61
2023/07/07 10:34:42;;;;;;;;;4.00;3.00;;;;;34.65;28.75;99357.53;6019302;29;96334;-61
2023/07/07 10:37:46;;;;;;;;;2.00;2.00;;;;;34.87;35.62;99367.19;6002100;29;96687;-61
2023/07/07 10:40:49;;;;;;;;;2.60;2.60;;;;;35.04;31.79;99366.72;6018200;29;96538;-61
2023/07/07 10:43:52;;;;;;;;;3.00;3.00;;;;;34.94;30.21;99358.91;6018039;29;96364;-61
2023/07/07 10:46:55;;;;;;;;;5.00;4.00;;;;;34.70;32.88;99355.25;6018305;29;96353;-61
2023/07/07 10:50:01;;;;;;;;;4.75;4.00;;;;;34.51;30.73;99348.84;6018939;29;96313;-61
2023/07/07 10:53:29;;;;;;;;;4.60;4.60;;;;;34.02;31.57;99360.59;6001928;29;96575;-61
2023/07/07 10:56:38;;;;;;;;;5.00;5.00;;;;;34.09;29.40;99346.75;6017637;29;96905;-61
2023/07/07 11:00:02;;;;;;;;;2.75;2.00;;;;;34.36;26.99;99344.94;6019310;29;96538;-61
2023/07/07 11:03:48;;;;;;;;;3.00;3.00;;;;;34.74;33.35;99356.16;6019125;29;96513;-61
2023/07/07 11:07:06;;;;;;;;;4.00;4.00;;;;;34.96;30.90;99350.94;5935579;29;96391;-61
2023/07/07 11:10:27;;;;;;;;;4.60;4.00;;;;;34.67;27.76;99329.97;6010679;29;96369;-61
2023/07/07 11:13:52;;;;;;;;;5.00;5.00;;;;;34.22;31.80;99334.28;6021962;28;97131;-61
2023/07/07 11:17:05;;;;;;;;;5.00;4.00;;;;;33.82;32.67;99350.53;6035808;28;96493;-61
2023/07/07 11:20:32;;;;;;;;;5.00;3.60;;;;;33.19;33.80;99342.22;6022463;29;97402;-61
2023/07/07 11:23:52;;;;;;;;;4.00;3.00;;;;;33.03;33.91;99339.41;6020103;29;96374;-61
2023/07/07 11:27:27;;;;;;;;;4.00;3.00;;;;;33.31;37.29;99333.75;6006516;29;98452;-61
2023/07/07 11:30:39;;;;;;;;;4.20;4.20;;;;;33.35;38.85;99337.44;6002800;29;97000;-61
2023/07/07 11:33:54;;;;;;;;;6.00;4.00;;;;;33.31;39.48;99339.34;6022416;29;96715;-61
2023/07/07 11:37:10;;;;;;;;;5.00;5.00;;;;;33.32;37.76;99331.75;6022928;28;96505;-61
2023/07/07 11:40:29;;;;;;;;;6.00;6.00;;;;;32.93;35.64;99327.94;6020758;29;96840;-61
2023/07/07 11:44:06;;;;;;;;;5.00;5.00;;;;;32.81;33.81;99330.81;6021754;29;96557;-65
2023/07/07 11:47:26;;;;;;;;;4.00;4.00;;;;;32.91;33.23;99324.69;6021993;29;96498;-64
2023/07/07 11:50:43;;;;;;;;;3.00;3.00;;;;;33.47;35.58;99339.31;6033411;28;96556;-64
2023/07/07 11:54:19;;;;;;;;;3.00;3.00;;;;;33.69;31.85;99329.47;6020420;29;96641;-65
2023/07/07 11:57:52;;;;;;;;;5.00;5.00;;;;;33.60;31.88;99332.44;6021938;28;96622;-65
2023/07/07 12:01:13;;;;;;;;;7.00;7.00;;;;;33.44;33.30;99334.44;6021854;29;97282;-65
2023/07/07 12:04:23;;;;;;;;;5.25;5.25;;;;;33.20;32.27;99334.63;6021395;29;97125;-65
2023/07/07 12:07:34;;;;;;;;;6.00;6.00;;;;;32.98;34.70;99333.28;6020059;29;96735;-65
2023/07/07 12:10:45;;;;;;;;;5.00;5.00;;;;;32.83;34.61;99320.91;6021694;28;97131;-65
2023/07/07 12:14:00;;;;;;;;;4.50;4.00;;;;;33.15;35.08;99323.69;6019298;29;96931;-65
2023/07/07 12:17:06;;;;;;;;;5.00;5.00;;;;;33.62;35.45;99315.31;6016854;29;96566;-65
2023/07/07 12:20:16;;;;;;;;;4.00;4.00;;;;;33.71;32.04;99316.75;6002302;28;97106;-65
2023/07/07 12:23:29;;;;;;;;;4.00;4.00;;;;;33.63;32.13;99312.13;6011508;28;96679;-65
2023/07/07 12:26:36;;;;;;;;;5.60;5.00;;;;;33.41;31.45;99326.78;6015200;28;96481;-63
2023/07/07 12:29:45;;;;;;;;;5.80;5.00;;;;;33.22;31.76;99321.13;6012219;29;96483;-65
2023/07/07 12:32:48;;;;;;;;;4.00;4.00;;;;;32.91;31.46;99311.53;6018829;29;97319;-65
2023/07/07 12:35:56;;;;;;;;;5.80;5.80;;;;;32.71;31.58;99314.59;6018830;28;97790;-65
2023/07/07 12:39:02;;;;;;;;;5.00;4.00;;;;;32.48;32.40;99309.56;6031027;28;98238;-65
2023/07/07 12:42:06;;;;;;;;;4.00;4.00;;;;;32.67;33.48;99309.72;6021115;29;96509;-65
2023/07/07 12:45:18;;;;;;;;;4.00;4.00;;;;;33.00;36.09;99298.22;6019761;29;96259;-65
2023/07/07 12:48:26;;;;;;;;;3.75;3.75;;;;;33.46;30.60;99316.16;6020488;28;96312;-65
2023/07/07 12:51:32;;;;;;;;;6.00;5.00;;;;;33.85;32.83;99307.88;6020337;28;96449;-65
2023/07/07 12:54:37;;;;;;;;;4.00;4.00;;;;;34.12;31.57;99294.84;6019423;29;96784;-65
2023/07/07 12:57:58;;;;;;;;;5.50;5.00;;;;;34.34;31.21;99308.94;6018626;29;97210;-65
2023/07/07 13:01:10;;;;;;;;;5.00;4.00;;;;;34.50;29.29;99308.84;6017523;29;99790;-65
2023/07/07 13:04:17;;;;;;;;;6.00;5.00;;;;;34.32;30.62;99316.06;6014733;29;96623;-64
2023/07/07 13:07:28;;;;;;;;;4.00;4.00;;;;;34.06;31.50;99327.91;6020208;29;97573;-64
2023/07/07 13:10:34;;;;;;;;;6.00;5.00;;;;;33.69;31.63;99316.28;5998354;29;96477;-65
2023/07/07 13:13:38;;;;;;;;;5.50;5.50;;;;;33.53;32.69;99321.88;6000675;29;96583;-65
2023/07/07 13:16:44;;;;;;;;;6.00;6.00;;;;;33.28;28.80;99305.72;6019025;28;96412;-66
2023/07/07 13:19:50;;;;;;;;;6.00;6.00;;;;;33.49;33.26;99318.19;6018820;29;96510;-65
2023/07/07 13:22:59;;;;;;;;;5.75;5.75;;;;;33.62;31.92;99316.13;6001325;29;96947;-65
2023/07/07 13:26:03;;;;;;;;;5.00;4.00;;;;;33.90;32.70;99308.38;6017466;29;96717;-65
2023/07/07 13:29:07;;;;;;;;;8.00;7.00;;;;;34.22;31.91;99311.88;6003153;28;98477;-65
2023/07/07 13:35:41;;;;;;;;;6.40;6.40;;;;;34.29;30.43;99311.22;6311204;27;96277;-65
2023/07/07 13:38:49;;;;;;;;;5.00;4.00;;;;;34.04;29.01;99307.88;6306381;27;96553;-65
2023/07/07 13:41:52;;;;;;;;;5.40;4.40;;;;;33.99;30.06;99308.16;6290307;27;96508;-66
2023/07/07 13:44:57;;;;;;;;;4.00;4.00;;;;;34.09;31.37;99304.78;6289930;27;96603;-65
2023/07/07 13:48:15;;;;;;;;;4.00;4.00;;;;;34.29;33.39;99303.63;6282954;27;98416;-65
2023/07/07 13:51:25;;;;;;;;;3.00;3.00;;;;;34.48;29.27;99297.19;6307470;27;97026;-65
2023/07/07 13:54:29;;;;;;;;;4.00;4.00;;;;;34.62;31.48;99305.06;6267031;27;96748;-65
2023/07/07 13:57:34;;;;;;;;;4.40;4.40;;;;;34.39;29.94;99282.63;6294998;27;96390;-66
2023/07/07 14:00:39;;;;;;;;;4.40;4.00;;;;;34.13;30.70;99290.88;6259204;27;99365;-65
2023/07/07 14:03:46;;;;;;;;;4.60;4.60;;;;;34.18;30.80;99294.22;6298975;27;97405;-65
2023/07/07 14:06:51;;;;;;;;;5.00;5.00;;;;;33.92;27.53;99294.81;6258636;27;100185;-65
2023/07/07 14:09:56;;;;;;;;;5.25;4.25;;;;;34.00;31.72;99283.81;6272095;27;96716;-65
2023/07/07 14:12:59;;;;;;;;;4.00;3.60;;;;;34.01;31.43;99305.81;6294406;27;97090;-65
2023/07/07 14:16:08;;;;;;;;;5.00;5.00;;;;;34.05;31.08;99303.91;6269693;27;96812;-65
2023/07/07 14:19:18;;;;;;;;;4.00;4.00;;;;;34.19;31.83;99301.44;6275260;27;97118;-65
2023/07/07 14:22:25;;;;;;;;;5.60;5.00;;;;;34.24;30.12;99301.13;6261060;27;97007;-66
2023/07/07 14:25:28;;;;;;;;;4.00;4.00;;;;;34.14;29.89;99298.91;6286703;27;97441;-65
2023/07/07 14:28:37;;;;;;;;;4.80;4.80;;;;;33.91;29.70;99290.44;6287691;27;96545;-64
2023/07/07 14:31:40;;;;;;;;;5.00;5.00;;;;;33.79;29.98;99300.94;6271567;27;97291;-65